createdAt,value
2023-07-16T00:00:00.313Z,24.24
2023-07-16T00:01:00.363Z,24.22
2023-07-16T00:02:00.375Z,24.20
2023-07-16T00:03:00.339Z,24.20
2023-07-16T00:04:00.346Z,24.18
2023-07-16T00:05:00.268Z,24.18
2023-07-16T00:06:00.278Z,24.20
2023-07-16T00:07:00.306Z,24.16
2023-07-16T00:08:00.235Z,24.18
2023-07-16T00:09:00.235Z,24.18
2023-07-16T00:10:00.222Z,24.18
2023-07-16T00:11:00.192Z,24.16
2023-07-16T00:12:00.189Z,24.16
2023-07-16T00:13:00.182Z,24.13
2023-07-16T00:14:00.949Z,24.13
2023-07-16T00:15:00.170Z,24.12
2023-07-16T00:16:00.246Z,24.10
2023-07-16T00:17:00.322Z,24.08
2023-07-16T00:18:00.173Z,24.08
2023-07-16T00:19:00.159Z,24.06
2023-07-16T00:20:00.163Z,24.05
2023-07-16T00:21:00.077Z,24.03
2023-07-16T00:22:00.696Z,24.02
2023-07-16T00:23:00.120Z,24.00
2023-07-16T00:24:00.144Z,24.00
2023-07-16T00:25:00.027Z,23.97
2023-07-16T00:26:00.033Z,23.95
2023-07-16T00:27:00.026Z,23.95
2023-07-16T00:28:00.302Z,23.94
2023-07-16T00:29:00.418Z,23.94
2023-07-16T00:30:00.585Z,23.91
2023-07-16T00:31:00.033Z,23.93
2023-07-16T00:32:00.699Z,23.93
2023-07-16T00:32:59.970Z,23.91
2023-07-16T00:33:59.947Z,23.91
2023-07-16T00:34:59.952Z,23.91
2023-07-16T00:35:59.923Z,23.91
2023-07-16T00:36:59.960Z,23.91
2023-07-16T00:37:59.902Z,23.90
2023-07-16T00:38:59.888Z,23.88
2023-07-16T00:39:59.908Z,23.87
2023-07-16T00:40:59.873Z,23.83
2023-07-16T00:41:59.863Z,23.78
2023-07-16T00:42:59.843Z,23.76
2023-07-16T00:43:59.833Z,23.73
2023-07-16T00:44:59.879Z,23.72
2023-07-16T00:45:59.888Z,23.70
2023-07-16T00:46:59.927Z,23.70
2023-07-16T00:47:59.817Z,23.70
2023-07-16T00:48:59.790Z,23.66
2023-07-16T00:49:59.763Z,23.66
2023-07-16T00:50:59.751Z,23.68
2023-07-16T00:51:59.757Z,23.66
2023-07-16T00:52:59.753Z,23.63
2023-07-16T00:53:59.736Z,23.63
2023-07-16T00:54:59.718Z,23.63
2023-07-16T00:55:59.721Z,23.63
2023-07-16T00:56:59.727Z,23.61
2023-07-16T00:57:59.702Z,23.61
2023-07-16T00:58:59.667Z,23.60
2023-07-16T00:59:59.683Z,23.57
2023-07-16T01:00:59.637Z,23.57
2023-07-16T01:01:59.724Z,23.54
2023-07-16T01:02:59.761Z,23.55
2023-07-16T01:03:59.629Z,23.53
2023-07-16T01:05:00.709Z,23.53
2023-07-16T01:05:59.594Z,23.50
2023-07-16T01:06:59.640Z,23.50
2023-07-16T01:07:59.587Z,23.48
2023-07-16T01:08:59.572Z,23.47
2023-07-16T01:09:59.625Z,23.47
2023-07-16T01:10:59.537Z,23.46
2023-07-16T01:11:59.554Z,23.46
2023-07-16T01:12:59.540Z,23.43
2023-07-16T01:13:59.527Z,23.43
2023-07-16T01:15:00.093Z,23.39
2023-07-16T01:15:59.514Z,23.40
2023-07-16T01:16:59.561Z,23.36
2023-07-16T01:17:59.535Z,23.33
2023-07-16T01:18:59.456Z,23.27
2023-07-16T01:19:59.544Z,23.22
2023-07-16T01:20:59.435Z,23.19
2023-07-16T01:21:59.429Z,23.15
2023-07-16T01:22:59.502Z,23.12
2023-07-16T01:23:59.407Z,23.07
2023-07-16T01:24:59.416Z,23.05
2023-07-16T01:26:00.215Z,23.04
2023-07-16T01:26:59.365Z,23.04
2023-07-16T01:27:59.391Z,23.00
2023-07-16T01:28:59.360Z,22.98
2023-07-16T01:29:59.399Z,22.97
2023-07-16T01:30:59.338Z,22.94
2023-07-16T01:31:59.350Z,22.94
2023-07-16T01:32:59.665Z,22.95
2023-07-16T01:33:59.361Z,22.95
2023-07-16T01:34:59.295Z,22.94
2023-07-16T01:35:59.303Z,22.94
2023-07-16T01:36:59.265Z,22.92
2023-07-16T01:37:59.294Z,22.91
2023-07-16T01:38:59.271Z,22.91
2023-07-16T01:39:59.245Z,22.91
2023-07-16T01:40:59.232Z,22.91
2023-07-16T01:41:59.237Z,22.90
2023-07-16T01:42:59.251Z,22.90
2023-07-16T01:43:59.192Z,22.90
2023-07-16T01:44:59.222Z,22.91
2023-07-16T01:45:59.223Z,22.91
2023-07-16T01:46:59.176Z,22.91
2023-07-16T01:47:59.184Z,22.92
2023-07-16T01:48:59.142Z,22.91
2023-07-16T01:49:59.147Z,22.94
2023-07-16T01:50:59.113Z,22.92
2023-07-16T01:51:59.120Z,22.94
2023-07-16T01:52:59.096Z,22.94
2023-07-16T01:53:59.087Z,22.98
2023-07-16T01:54:59.226Z,22.98
2023-07-16T01:55:59.076Z,23.00
2023-07-16T01:56:59.054Z,23.02
2023-07-16T01:57:59.724Z,23.02
2023-07-16T01:58:59.049Z,23.02
2023-07-16T01:59:59.023Z,23.01
2023-07-16T02:00:59.192Z,23.02
2023-07-16T02:01:59.015Z,23.01
2023-07-16T02:02:59.090Z,23.02
2023-07-16T02:03:58.986Z,23.04
2023-07-16T02:04:58.994Z,23.05
2023-07-16T02:05:59.013Z,23.09
2023-07-16T02:06:58.942Z,23.07
2023-07-16T02:07:58.939Z,23.07
2023-07-16T02:08:58.929Z,23.10
2023-07-16T02:09:58.914Z,23.12
2023-07-16T02:10:59.628Z,23.15
2023-07-16T02:11:58.911Z,23.15
2023-07-16T02:12:58.875Z,23.16
2023-07-16T02:13:58.874Z,23.16
2023-07-16T02:14:58.893Z,23.17
2023-07-16T02:15:58.920Z,23.17
2023-07-16T02:16:58.850Z,23.19
2023-07-16T02:17:58.891Z,23.19
2023-07-16T02:18:58.831Z,23.20
2023-07-16T02:19:58.820Z,23.22
2023-07-16T02:20:58.849Z,23.17
2023-07-16T02:21:58.778Z,23.16
2023-07-16T02:22:58.826Z,23.12
2023-07-16T02:23:59.003Z,23.09
2023-07-16T02:24:58.752Z,23.02
2023-07-16T02:25:58.910Z,22.95
2023-07-16T02:26:59.258Z,22.90
2023-07-16T02:27:58.727Z,22.83
2023-07-16T02:28:58.755Z,22.76
2023-07-16T02:29:58.749Z,22.68
2023-07-16T02:30:58.750Z,22.61
2023-07-16T02:31:58.676Z,22.55
2023-07-16T02:32:58.709Z,22.52
2023-07-16T02:33:58.667Z,22.47
2023-07-16T02:34:58.651Z,22.46
2023-07-16T02:35:58.635Z,22.45
2023-07-16T02:36:58.623Z,22.45
2023-07-16T02:37:58.650Z,22.45
2023-07-16T02:38:59.505Z,22.42
2023-07-16T02:39:58.628Z,22.39
2023-07-16T02:40:58.607Z,22.37
2023-07-16T02:41:58.568Z,22.36
2023-07-16T02:42:59.253Z,22.33
2023-07-16T02:43:58.561Z,22.28
2023-07-16T02:44:58.534Z,22.25
2023-07-16T02:45:58.555Z,22.21
2023-07-16T02:46:58.557Z,22.18
2023-07-16T02:47:58.516Z,22.15
2023-07-16T02:48:58.492Z,22.15
2023-07-16T02:49:58.482Z,22.14
2023-07-16T02:50:58.495Z,22.10
2023-07-16T02:51:58.453Z,22.06
2023-07-16T02:52:58.446Z,22.05
2023-07-16T02:53:58.455Z,22.03
2023-07-16T02:54:58.454Z,22.03
2023-07-16T02:55:59.140Z,22.02
2023-07-16T02:56:58.427Z,21.98
2023-07-16T02:57:58.391Z,21.99
2023-07-16T02:58:58.396Z,21.98
2023-07-16T02:59:58.396Z,21.96
2023-07-16T03:00:58.448Z,21.92
2023-07-16T03:01:58.469Z,21.88
2023-07-16T03:02:58.426Z,21.80
2023-07-16T03:03:58.323Z,21.77
2023-07-16T03:04:58.376Z,21.74
2023-07-16T03:05:58.313Z,21.71
2023-07-16T03:06:58.304Z,21.67
2023-07-16T03:07:58.286Z,21.64
2023-07-16T03:08:58.293Z,21.62
2023-07-16T03:09:58.254Z,21.64
2023-07-16T03:10:58.328Z,21.62
2023-07-16T03:11:58.276Z,21.61
2023-07-16T03:12:58.244Z,21.59
2023-07-16T03:13:58.246Z,21.54
2023-07-16T03:14:58.232Z,21.54
2023-07-16T03:15:58.214Z,21.53
2023-07-16T03:16:58.256Z,21.53
2023-07-16T03:17:58.254Z,21.52
2023-07-16T03:18:58.767Z,21.47
2023-07-16T03:19:58.180Z,21.47
2023-07-16T03:20:58.152Z,21.44
2023-07-16T03:21:58.153Z,21.40
2023-07-16T03:22:58.161Z,21.37
2023-07-16T03:23:58.152Z,21.35
2023-07-16T03:24:58.219Z,21.31
2023-07-16T03:25:58.114Z,21.29
2023-07-16T03:27:08.181Z,21.29
2023-07-16T03:27:58.105Z,21.28
2023-07-16T03:28:58.070Z,21.31
2023-07-16T03:29:58.059Z,21.31
2023-07-16T03:30:58.090Z,21.31
2023-07-16T03:31:58.040Z,21.31
2023-07-16T03:32:58.084Z,21.31
2023-07-16T03:33:58.008Z,21.31
2023-07-16T03:34:58.017Z,21.32
2023-07-16T03:35:57.991Z,21.29
2023-07-16T03:36:57.978Z,21.28
2023-07-16T03:37:57.970Z,21.27
2023-07-16T03:38:58.053Z,21.24
2023-07-16T03:39:58.011Z,21.22
2023-07-16T03:40:57.956Z,21.22
2023-07-16T03:41:58.011Z,21.24
2023-07-16T03:42:57.920Z,21.27
2023-07-16T03:43:57.897Z,21.25
2023-07-16T03:44:57.895Z,21.28
2023-07-16T03:45:57.883Z,21.27
2023-07-16T03:46:57.947Z,21.27
2023-07-16T03:47:57.945Z,21.28
2023-07-16T03:48:57.868Z,21.25
2023-07-16T03:49:57.871Z,21.24
2023-07-16T03:50:57.836Z,21.22
2023-07-16T03:51:57.908Z,21.21
2023-07-16T03:52:57.816Z,21.19
2023-07-16T03:53:57.818Z,21.17
2023-07-16T03:54:57.781Z,21.17
2023-07-16T03:55:57.782Z,21.17
2023-07-16T03:56:57.754Z,21.19
2023-07-16T03:57:57.766Z,21.17
2023-07-16T03:58:58.639Z,21.16
2023-07-16T03:59:57.741Z,21.19
2023-07-16T04:00:57.719Z,21.21
2023-07-16T04:01:57.729Z,21.21
2023-07-16T04:02:57.810Z,21.21
2023-07-16T04:03:57.731Z,21.21
2023-07-16T04:04:57.683Z,21.21
2023-07-16T04:05:57.673Z,21.22
2023-07-16T04:06:57.650Z,21.21
2023-07-16T04:07:57.651Z,21.22
2023-07-16T04:08:57.682Z,21.21
2023-07-16T04:09:57.633Z,21.21
2023-07-16T04:10:57.665Z,21.19
2023-07-16T04:11:57.611Z,21.21
2023-07-16T04:12:57.606Z,21.21
2023-07-16T04:13:58.279Z,21.19
2023-07-16T04:14:57.589Z,21.17
2023-07-16T04:15:57.552Z,21.16
2023-07-16T04:16:57.578Z,21.14
2023-07-16T04:17:57.561Z,21.14
2023-07-16T04:18:57.533Z,21.14
2023-07-16T04:19:57.542Z,21.14
2023-07-16T04:20:57.507Z,21.16
2023-07-16T04:21:57.489Z,21.14
2023-07-16T04:22:57.540Z,21.16
2023-07-16T04:23:58.294Z,21.16
2023-07-16T04:24:57.522Z,21.17
2023-07-16T04:25:57.466Z,21.21
2023-07-16T04:26:57.451Z,21.19
2023-07-16T04:27:57.436Z,21.21
2023-07-16T04:28:57.440Z,21.21
2023-07-16T04:29:57.413Z,21.21
2023-07-16T04:30:57.415Z,21.19
2023-07-16T04:31:57.377Z,21.16
2023-07-16T04:32:57.422Z,21.14
2023-07-16T04:33:57.351Z,21.14
2023-07-16T04:34:57.397Z,21.13
2023-07-16T04:35:57.370Z,21.12
2023-07-16T04:36:57.367Z,21.10
2023-07-16T04:37:57.313Z,21.10
2023-07-16T04:38:57.309Z,21.10
2023-07-16T04:39:57.295Z,21.10
2023-07-16T04:40:57.294Z,21.10
2023-07-16T04:41:57.300Z,21.10
2023-07-16T04:42:57.264Z,21.10
2023-07-16T04:43:57.256Z,21.10
2023-07-16T04:44:57.248Z,21.09
2023-07-16T04:45:57.291Z,21.09
2023-07-16T04:46:57.481Z,21.06
2023-07-16T04:47:57.237Z,21.07
2023-07-16T04:48:57.201Z,21.07
2023-07-16T04:49:59.945Z,21.07
2023-07-16T04:50:57.165Z,21.07
2023-07-16T04:51:57.242Z,21.07
2023-07-16T04:52:57.184Z,21.07
2023-07-16T04:54:03.677Z,21.07
2023-07-16T04:54:57.129Z,21.07
2023-07-16T04:55:57.119Z,21.10
2023-07-16T04:56:57.099Z,21.12
2023-07-16T04:57:57.143Z,21.12
2023-07-16T04:58:57.078Z,21.13
2023-07-16T04:59:57.077Z,21.14
2023-07-16T05:00:57.082Z,21.16
2023-07-16T05:01:57.066Z,21.16
2023-07-16T05:02:57.051Z,21.16
2023-07-16T05:03:57.074Z,21.14
2023-07-16T05:04:57.014Z,21.14
2023-07-16T05:05:57.008Z,21.14
2023-07-16T05:06:56.997Z,21.16
2023-07-16T05:07:56.992Z,21.16
2023-07-16T05:08:57.044Z,21.16
2023-07-16T05:09:56.970Z,21.16
2023-07-16T05:10:56.949Z,21.14
2023-07-16T05:11:56.937Z,21.14
2023-07-16T05:12:56.923Z,21.14
2023-07-16T05:13:56.921Z,21.17
2023-07-16T05:14:56.941Z,21.19
2023-07-16T05:15:56.932Z,21.21
2023-07-16T05:16:56.986Z,21.21
2023-07-16T05:17:57.012Z,21.22
2023-07-16T05:18:56.866Z,21.24
2023-07-16T05:19:56.857Z,21.25
2023-07-16T05:20:56.852Z,21.27
2023-07-16T05:21:56.845Z,21.29
2023-07-16T05:22:56.871Z,21.31
2023-07-16T05:23:56.802Z,21.34
2023-07-16T05:24:56.796Z,21.35
2023-07-16T05:25:56.835Z,21.38
2023-07-16T05:26:56.765Z,21.42
2023-07-16T05:27:56.764Z,21.44
2023-07-16T05:28:56.750Z,21.43
2023-07-16T05:29:56.758Z,21.43
2023-07-16T05:30:56.754Z,21.44
2023-07-16T05:31:56.827Z,21.49
2023-07-16T05:32:56.764Z,21.53
2023-07-16T05:33:56.694Z,21.53
2023-07-16T05:34:56.738Z,21.56
2023-07-16T05:35:56.703Z,21.56
2023-07-16T05:36:56.671Z,21.58
2023-07-16T05:37:56.663Z,21.59
2023-07-16T05:38:56.656Z,21.61
2023-07-16T05:39:56.640Z,21.62
2023-07-16T05:40:56.633Z,21.59
2023-07-16T05:41:56.624Z,21.62
2023-07-16T05:42:56.602Z,21.62
2023-07-16T05:43:56.593Z,21.64
2023-07-16T05:44:56.612Z,21.65
2023-07-16T05:45:56.631Z,21.65
2023-07-16T05:46:56.557Z,21.65
2023-07-16T05:47:56.614Z,21.67
2023-07-16T05:48:56.624Z,21.67
2023-07-16T05:49:56.540Z,21.68
2023-07-16T05:50:56.540Z,21.67
2023-07-16T05:51:56.511Z,21.67
2023-07-16T05:52:56.491Z,21.67
2023-07-16T05:53:56.493Z,21.71
2023-07-16T05:54:56.464Z,21.74
2023-07-16T05:55:56.460Z,21.75
2023-07-16T05:56:56.458Z,21.80
2023-07-16T05:57:56.459Z,21.83
2023-07-16T05:58:56.433Z,21.86
2023-07-16T05:59:56.780Z,21.90
2023-07-16T06:00:56.405Z,21.91
2023-07-16T06:01:56.519Z,21.94
2023-07-16T06:02:56.419Z,21.99
2023-07-16T06:03:56.407Z,22.00
2023-07-16T06:04:56.364Z,22.05
2023-07-16T06:05:56.352Z,22.09
2023-07-16T06:06:56.359Z,22.10
2023-07-16T06:07:56.380Z,22.17
2023-07-16T06:08:56.407Z,22.20
2023-07-16T06:09:56.318Z,22.21
2023-07-16T06:10:56.318Z,22.22
2023-07-16T06:11:56.304Z,22.25
2023-07-16T06:12:56.308Z,22.30
2023-07-16T06:13:56.377Z,22.33
2023-07-16T06:14:56.290Z,22.35
2023-07-16T06:15:56.291Z,22.36
2023-07-16T06:16:56.296Z,22.37
2023-07-16T06:17:56.261Z,22.40
2023-07-16T06:18:56.214Z,22.43
2023-07-16T06:19:56.220Z,22.47
2023-07-16T06:20:56.211Z,22.51
2023-07-16T06:21:56.190Z,22.54
2023-07-16T06:22:56.223Z,22.58
2023-07-16T06:23:56.177Z,22.60
2023-07-16T06:24:56.178Z,22.62
2023-07-16T06:25:56.197Z,22.67
2023-07-16T06:26:56.134Z,22.72
2023-07-16T06:27:56.157Z,22.75
2023-07-16T06:28:56.120Z,22.79
2023-07-16T06:29:56.184Z,22.80
2023-07-16T06:30:56.337Z,22.85
2023-07-16T06:31:56.244Z,22.88
2023-07-16T06:32:56.239Z,22.92
2023-07-16T06:33:56.086Z,22.95
2023-07-16T06:34:56.114Z,22.97
2023-07-16T06:35:56.041Z,23.02
2023-07-16T06:36:56.068Z,23.04
2023-07-16T06:37:56.014Z,23.07
2023-07-16T06:38:55.996Z,23.09
2023-07-16T06:39:56.178Z,23.10
2023-07-16T06:40:55.998Z,23.16
2023-07-16T06:41:55.965Z,23.19
2023-07-16T06:42:55.968Z,23.23
2023-07-16T06:43:55.940Z,23.28
2023-07-16T06:44:55.953Z,23.33
2023-07-16T06:45:56.130Z,23.33
2023-07-16T06:46:55.917Z,23.39
2023-07-16T06:47:55.944Z,23.40
2023-07-16T06:48:55.932Z,23.42
2023-07-16T06:49:55.887Z,23.47
2023-07-16T06:50:55.888Z,23.50
2023-07-16T06:51:55.893Z,23.54
2023-07-16T06:52:55.874Z,23.57
2023-07-16T06:53:55.850Z,23.60
2023-07-16T06:54:55.833Z,23.65
2023-07-16T06:55:55.824Z,23.70
2023-07-16T06:56:55.840Z,23.76
2023-07-16T06:57:55.812Z,23.79
2023-07-16T06:58:55.787Z,23.87
2023-07-16T06:59:55.778Z,23.90
2023-07-16T07:00:55.823Z,23.91
2023-07-16T07:01:55.846Z,23.94
2023-07-16T07:02:55.818Z,23.97
2023-07-16T07:03:55.814Z,23.98
2023-07-16T07:04:55.738Z,24.00
2023-07-16T07:05:55.715Z,24.06
2023-07-16T07:06:55.753Z,24.10
2023-07-16T07:07:55.710Z,24.16
2023-07-16T07:08:55.692Z,24.18
2023-07-16T07:09:55.680Z,24.22
2023-07-16T07:10:55.676Z,24.22
2023-07-16T07:11:55.652Z,24.21
2023-07-16T07:12:55.682Z,24.20
2023-07-16T07:13:55.658Z,24.21
2023-07-16T07:14:55.623Z,24.16
2023-07-16T07:15:55.639Z,24.18
2023-07-16T07:16:55.601Z,24.20
2023-07-16T07:17:55.654Z,24.24
2023-07-16T07:18:55.613Z,24.25
2023-07-16T07:19:55.596Z,24.27
2023-07-16T07:20:55.568Z,24.30
2023-07-16T07:21:55.605Z,24.32
2023-07-16T07:22:55.588Z,24.35
2023-07-16T07:23:55.554Z,24.37
2023-07-16T07:24:55.522Z,24.39
2023-07-16T07:25:55.519Z,24.42
2023-07-16T07:26:55.504Z,24.45
2023-07-16T07:27:55.503Z,24.53
2023-07-16T07:28:55.481Z,24.58
2023-07-16T07:29:55.464Z,24.64
2023-07-16T07:30:55.489Z,24.67
2023-07-16T07:31:55.444Z,24.68
2023-07-16T07:32:55.482Z,24.76
2023-07-16T07:33:55.448Z,24.83
2023-07-16T07:34:55.471Z,24.85
2023-07-16T07:35:55.400Z,24.90
2023-07-16T07:36:55.381Z,24.96
2023-07-16T07:37:55.367Z,25.02
2023-07-16T07:38:55.372Z,25.06
2023-07-16T07:39:55.376Z,25.03
2023-07-16T07:40:55.357Z,25.00
2023-07-16T07:41:55.324Z,24.98
2023-07-16T07:42:55.337Z,24.87
2023-07-16T07:43:55.314Z,24.76
2023-07-16T07:44:55.301Z,24.67
2023-07-16T07:45:55.349Z,24.62
2023-07-16T07:46:55.312Z,24.60
2023-07-16T07:47:55.328Z,24.55
2023-07-16T07:48:55.264Z,24.52
2023-07-16T07:49:55.241Z,24.49
2023-07-16T07:50:55.243Z,24.49
2023-07-16T07:51:55.229Z,24.52
2023-07-16T07:52:55.224Z,24.53
2023-07-16T07:53:55.219Z,24.53
2023-07-16T07:54:55.207Z,24.57
2023-07-16T07:55:55.241Z,24.60
2023-07-16T07:56:55.229Z,24.61
2023-07-16T07:57:55.209Z,24.61
2023-07-16T07:58:55.241Z,24.67
2023-07-16T07:59:55.156Z,24.69
2023-07-16T08:00:55.156Z,24.71
2023-07-16T08:01:55.121Z,24.76
2023-07-16T08:02:55.192Z,24.81
2023-07-16T08:03:55.260Z,24.85
2023-07-16T08:04:55.265Z,24.96
2023-07-16T08:05:55.065Z,24.96
2023-07-16T08:06:55.078Z,25.03
2023-07-16T08:07:55.056Z,25.09
2023-07-16T08:08:55.094Z,25.10
2023-07-16T08:09:55.038Z,25.10
2023-07-16T08:10:55.029Z,25.10
2023-07-16T08:11:55.012Z,25.10
2023-07-16T08:12:55.018Z,25.10
2023-07-16T08:13:54.999Z,25.09
2023-07-16T08:14:54.993Z,25.08
2023-07-16T08:15:54.998Z,25.03
2023-07-16T08:16:55.040Z,25.02
2023-07-16T08:17:55.017Z,24.93
2023-07-16T08:18:54.943Z,24.84
2023-07-16T08:19:54.994Z,24.77
2023-07-16T08:20:54.980Z,24.69
2023-07-16T08:21:54.905Z,24.69
2023-07-16T08:22:55.031Z,24.69
2023-07-16T08:23:54.953Z,24.71
2023-07-16T08:24:54.891Z,24.73
2023-07-16T08:25:54.869Z,24.77
2023-07-16T08:26:54.851Z,24.81
2023-07-16T08:27:54.951Z,24.84
2023-07-16T08:28:54.852Z,24.87
2023-07-16T08:29:54.821Z,24.93
2023-07-16T08:30:54.844Z,24.99
2023-07-16T08:31:54.857Z,25.03
2023-07-16T08:32:54.856Z,25.09
2023-07-16T08:33:54.789Z,25.14
2023-07-16T08:34:54.769Z,25.18
2023-07-16T08:35:54.766Z,25.21
2023-07-16T08:36:54.753Z,25.23
2023-07-16T08:37:54.731Z,25.25
2023-07-16T08:38:54.774Z,25.27
2023-07-16T08:39:54.742Z,25.30
2023-07-16T08:40:54.720Z,25.36
2023-07-16T08:41:54.779Z,25.42
2023-07-16T08:42:54.697Z,25.45
2023-07-16T08:43:54.677Z,25.42
2023-07-16T08:44:54.748Z,25.43
2023-07-16T08:45:54.703Z,25.45
2023-07-16T08:46:54.710Z,25.46
2023-07-16T08:47:54.744Z,25.47
2023-07-16T08:48:54.632Z,25.50
2023-07-16T08:49:54.642Z,25.52
2023-07-16T08:50:54.715Z,25.54
2023-07-16T08:51:54.637Z,25.58
2023-07-16T08:52:54.585Z,25.61
2023-07-16T08:53:54.568Z,25.65
2023-07-16T08:54:54.566Z,25.70
2023-07-16T08:55:57.788Z,25.77
2023-07-16T08:56:54.733Z,25.83
2023-07-16T08:57:54.527Z,25.87
2023-07-16T08:58:54.509Z,25.85
2023-07-16T08:59:54.512Z,25.85
2023-07-16T09:00:54.500Z,25.87
2023-07-16T09:01:54.481Z,25.83
2023-07-16T09:02:54.509Z,25.87
2023-07-16T09:03:54.480Z,25.87
2023-07-16T09:04:54.491Z,25.88
2023-07-16T09:05:54.460Z,25.88
2023-07-16T09:06:54.442Z,25.91
2023-07-16T09:07:54.422Z,25.92
2023-07-16T09:08:54.432Z,25.95
2023-07-16T09:09:54.392Z,25.99
2023-07-16T09:10:54.395Z,26.01
2023-07-16T09:11:54.393Z,26.02
2023-07-16T09:12:54.362Z,26.02
2023-07-16T09:13:54.373Z,26.02
2023-07-16T09:14:54.348Z,26.05
2023-07-16T09:15:54.340Z,25.99
2023-07-16T09:16:54.424Z,25.97
2023-07-16T09:17:54.379Z,25.94
2023-07-16T09:18:54.304Z,25.91
2023-07-16T09:19:54.310Z,25.91
2023-07-16T09:20:54.432Z,25.92
2023-07-16T09:21:54.263Z,25.94
2023-07-16T09:22:54.320Z,25.97
2023-07-16T09:23:54.247Z,26.02
2023-07-16T09:24:54.248Z,26.07
2023-07-16T09:25:54.242Z,26.07
2023-07-16T09:26:54.315Z,26.06
2023-07-16T09:27:54.204Z,26.01
2023-07-16T09:28:54.201Z,25.98
2023-07-16T09:29:54.185Z,25.95
2023-07-16T09:30:54.314Z,25.97
2023-07-16T09:31:54.268Z,25.99
2023-07-16T09:32:54.243Z,25.98
2023-07-16T09:33:54.140Z,26.01
2023-07-16T09:34:54.136Z,26.05
2023-07-16T09:35:54.164Z,26.05
2023-07-16T09:36:54.133Z,26.06
2023-07-16T09:37:54.096Z,26.02
2023-07-16T09:38:54.129Z,25.99
2023-07-16T09:39:54.071Z,26.01
2023-07-16T09:40:54.108Z,25.99
2023-07-16T09:41:54.058Z,26.01
2023-07-16T09:42:54.060Z,26.05
2023-07-16T09:43:54.071Z,26.05
2023-07-16T09:44:54.056Z,26.07
2023-07-16T09:45:54.065Z,26.09
2023-07-16T09:46:54.097Z,26.09
2023-07-16T09:47:54.037Z,26.10
2023-07-16T09:48:53.992Z,26.13
2023-07-16T09:49:54.008Z,26.13
2023-07-16T09:50:54.148Z,26.12
2023-07-16T09:51:53.966Z,26.10
2023-07-16T09:52:53.951Z,26.09
2023-07-16T09:53:53.934Z,26.06
2023-07-16T09:54:53.933Z,26.06
2023-07-16T09:55:53.916Z,26.05
2023-07-16T09:56:53.973Z,26.02
2023-07-16T09:57:53.916Z,26.02
2023-07-16T09:58:54.808Z,26.01
2023-07-16T09:59:53.923Z,26.02
2023-07-16T10:00:53.962Z,26.02
2023-07-16T10:01:53.883Z,26.05
2023-07-16T10:02:53.925Z,26.05
2023-07-16T10:03:53.884Z,26.02
2023-07-16T10:04:53.856Z,26.01
2023-07-16T10:05:53.860Z,26.02
2023-07-16T10:06:53.805Z,25.99
2023-07-16T10:07:53.789Z,25.98
2023-07-16T10:08:53.778Z,25.97
2023-07-16T10:09:53.840Z,25.92
2023-07-16T10:10:53.770Z,25.95
2023-07-16T10:11:53.740Z,25.99
2023-07-16T10:12:53.786Z,26.02
2023-07-16T10:13:53.724Z,26.07
2023-07-16T10:14:53.724Z,26.13
2023-07-16T10:15:53.822Z,26.20
2023-07-16T10:16:53.781Z,26.25
2023-07-16T10:17:53.726Z,26.28
2023-07-16T10:18:53.679Z,26.29
2023-07-16T10:19:53.692Z,26.33
2023-07-16T10:20:53.710Z,26.39
2023-07-16T10:21:53.633Z,26.43
2023-07-16T10:22:53.693Z,26.44
2023-07-16T10:23:53.618Z,26.48
2023-07-16T10:24:53.641Z,26.48
2023-07-16T10:25:53.677Z,26.48
2023-07-16T10:26:53.592Z,26.50
2023-07-16T10:27:53.575Z,26.52
2023-07-16T10:28:53.581Z,26.57
2023-07-16T10:29:53.556Z,26.58
2023-07-16T10:30:53.576Z,26.62
2023-07-16T10:31:53.988Z,26.58
2023-07-16T10:32:53.713Z,26.54
2023-07-16T10:33:53.508Z,26.47
2023-07-16T10:34:53.505Z,26.43
2023-07-16T10:35:53.507Z,26.39
2023-07-16T10:36:53.484Z,26.43
2023-07-16T10:37:53.505Z,26.44
2023-07-16T10:38:53.455Z,26.47
2023-07-16T10:39:53.454Z,26.51
2023-07-16T10:40:53.608Z,26.48
2023-07-16T10:41:53.451Z,26.45
2023-07-16T10:42:53.430Z,26.39
2023-07-16T10:43:55.680Z,26.33
2023-07-16T10:44:53.407Z,26.32
2023-07-16T10:45:53.420Z,26.28
2023-07-16T10:46:53.404Z,26.25
2023-07-16T10:47:53.704Z,26.23
2023-07-16T10:48:53.352Z,26.18
2023-07-16T10:49:53.374Z,26.13
2023-07-16T10:50:53.338Z,26.13
2023-07-16T10:51:53.329Z,26.12
2023-07-16T10:52:53.318Z,26.06
2023-07-16T10:53:53.337Z,26.06
2023-07-16T10:54:53.285Z,26.06
2023-07-16T10:55:53.278Z,26.01
2023-07-16T10:56:53.271Z,25.94
2023-07-16T10:57:53.260Z,25.92
2023-07-16T10:58:53.248Z,25.90
2023-07-16T10:59:53.241Z,25.87
2023-07-16T11:00:53.287Z,25.87
2023-07-16T11:01:53.275Z,25.87
2023-07-16T11:02:53.330Z,25.91
2023-07-16T11:03:53.316Z,25.98
2023-07-16T11:04:53.182Z,26.06
2023-07-16T11:05:53.198Z,26.17
2023-07-16T11:06:53.154Z,26.28
2023-07-16T11:07:55.108Z,26.36
2023-07-16T11:08:53.145Z,26.45
2023-07-16T11:09:53.146Z,26.52
2023-07-16T11:10:53.130Z,26.62
2023-07-16T11:11:53.141Z,26.73
2023-07-16T11:12:53.091Z,26.84
2023-07-16T11:13:53.152Z,26.92
2023-07-16T11:14:53.073Z,27.02
2023-07-16T11:15:53.140Z,27.04
2023-07-16T11:16:53.055Z,27.03
2023-07-16T11:17:53.160Z,27.03
2023-07-16T11:18:53.036Z,27.02
2023-07-16T11:19:53.045Z,26.99
2023-07-16T11:20:53.001Z,26.95
2023-07-16T11:21:52.996Z,26.95
2023-07-16T11:22:53.075Z,26.94
2023-07-16T11:23:52.981Z,26.95
2023-07-16T11:24:53.042Z,26.95
2023-07-16T11:25:52.966Z,26.89
2023-07-16T11:26:52.957Z,26.85
2023-07-16T11:27:52.935Z,26.85
2023-07-16T11:28:52.955Z,26.89
2023-07-16T11:29:53.565Z,26.94
2023-07-16T11:30:52.948Z,26.97
2023-07-16T11:31:53.036Z,27.03
2023-07-16T11:32:53.123Z,27.09
2023-07-16T11:33:52.869Z,27.17
2023-07-16T11:34:52.857Z,27.24
2023-07-16T11:35:52.881Z,27.28
2023-07-16T11:36:52.835Z,27.36
2023-07-16T11:37:52.830Z,27.49
2023-07-16T11:38:52.816Z,27.57
2023-07-16T11:39:52.809Z,27.66
2023-07-16T11:40:52.813Z,27.74
2023-07-16T11:41:52.808Z,27.82
2023-07-16T11:42:52.774Z,27.93
2023-07-16T11:43:52.780Z,28.02
2023-07-16T11:44:52.751Z,28.14
2023-07-16T11:45:52.747Z,28.24
2023-07-16T11:46:52.840Z,28.34
2023-07-16T11:47:52.780Z,28.43
2023-07-16T11:48:52.708Z,28.56
2023-07-16T11:49:52.699Z,28.66
2023-07-16T11:50:52.694Z,28.66
2023-07-16T11:51:52.684Z,28.56
2023-07-16T11:52:52.855Z,28.52
2023-07-16T11:53:52.972Z,28.46
2023-07-16T11:54:52.666Z,28.40
2023-07-16T11:55:52.639Z,28.49
2023-07-16T11:56:52.656Z,28.61
2023-07-16T11:57:52.650Z,28.74
2023-07-16T11:58:52.630Z,28.71
2023-07-16T11:59:52.641Z,28.66
2023-07-16T12:00:52.690Z,28.56
2023-07-16T12:01:52.572Z,28.58
2023-07-16T12:02:53.160Z,28.64
2023-07-16T12:03:52.613Z,28.73
2023-07-16T12:04:52.541Z,28.83
2023-07-16T12:05:54.229Z,28.95
2023-07-16T12:06:52.541Z,29.15
2023-07-16T12:07:52.522Z,29.30
2023-07-16T12:08:52.499Z,29.43
2023-07-16T12:09:52.498Z,29.53
2023-07-16T12:10:52.491Z,29.64
2023-07-16T12:11:52.516Z,29.71
2023-07-16T12:12:52.463Z,29.82
2023-07-16T12:13:52.447Z,29.94
2023-07-16T12:14:52.440Z,30.04
2023-07-16T12:15:52.461Z,30.17
2023-07-16T12:16:52.482Z,30.31
2023-07-16T12:17:52.454Z,30.34
2023-07-16T12:18:52.410Z,30.46
2023-07-16T12:19:52.441Z,30.47
2023-07-16T12:20:52.374Z,30.54
2023-07-16T12:21:54.473Z,30.57
2023-07-16T12:22:52.466Z,30.62
2023-07-16T12:23:52.349Z,30.65
2023-07-16T12:24:52.344Z,30.75
2023-07-16T12:25:52.335Z,30.70
2023-07-16T12:26:52.309Z,30.54
2023-07-16T12:27:55.822Z,30.38
2023-07-16T12:28:52.309Z,30.31
2023-07-16T12:29:52.293Z,30.26
2023-07-16T12:30:52.302Z,30.24
2023-07-16T12:31:52.326Z,30.42
2023-07-16T12:32:52.285Z,30.57
2023-07-16T12:33:54.359Z,30.65
2023-07-16T12:34:52.246Z,30.70
2023-07-16T12:35:52.212Z,30.77
2023-07-16T12:36:52.222Z,30.77
2023-07-16T12:37:52.430Z,30.83
2023-07-16T12:38:52.179Z,30.89
2023-07-16T12:39:52.207Z,31.02
2023-07-16T12:40:52.166Z,31.14
2023-07-16T12:41:52.161Z,31.29
2023-07-16T12:42:52.139Z,31.43
2023-07-16T12:43:52.160Z,31.57
2023-07-16T12:44:52.116Z,31.41
2023-07-16T12:45:52.117Z,31.29
2023-07-16T12:46:52.147Z,31.23
2023-07-16T12:47:52.189Z,31.10
2023-07-16T12:48:52.079Z,30.80
2023-07-16T12:49:52.069Z,30.64
2023-07-16T12:50:52.082Z,30.46
2023-07-16T12:51:52.068Z,30.45